createdAt,value
2019-03-26T00:00:55.432Z,92.40
2019-03-26T00:03:25.160Z,92.30
2019-03-26T00:05:55.387Z,92.40
2019-03-26T00:08:25.119Z,92.50
2019-03-26T00:10:54.849Z,92.50
2019-03-26T00:13:24.642Z,92.60
2019-03-26T00:15:54.374Z,92.50
2019-03-26T00:18:24.113Z,92.50
2019-03-26T00:20:53.884Z,92.50
2019-03-26T00:23:23.618Z,92.40
2019-03-26T00:25:53.364Z,92.50
2019-03-26T00:28:23.121Z,92.50
2019-03-26T00:30:52.862Z,92.60
2019-03-26T00:33:35.374Z,92.50
2019-03-26T00:35:53.995Z,92.40
2019-03-26T00:38:23.764Z,92.40
2019-03-26T00:40:54.500Z,92.30
2019-03-26T00:43:25.133Z,92.20
2019-03-26T00:45:54.876Z,92.00
2019-03-26T00:48:26.116Z,92.00
2019-03-26T00:50:55.865Z,92.20
2019-03-26T00:53:25.618Z,92.30
2019-03-26T00:55:55.352Z,92.00
2019-03-26T00:58:25.126Z,92.20
2019-03-26T01:00:54.987Z,91.90
2019-03-26T01:03:24.646Z,92.00
2019-03-26T01:05:54.416Z,92.10
2019-03-26T01:08:24.142Z,92.00
2019-03-26T01:10:53.879Z,92.20
2019-03-26T01:13:24.550Z,92.60
2019-03-26T01:15:54.278Z,92.20
2019-03-26T01:18:24.170Z,92.10
2019-03-26T01:20:54.307Z,92.20
2019-03-26T01:23:24.073Z,92.00
2019-03-26T01:25:53.810Z,92.30
2019-03-26T01:28:23.543Z,91.80
2019-03-26T01:30:53.323Z,91.80
2019-03-26T01:33:23.047Z,92.20
2019-03-26T01:35:53.352Z,91.70
2019-03-26T01:38:23.078Z,91.90
2019-03-26T01:40:52.847Z,91.80
2019-03-26T01:43:22.571Z,91.50
2019-03-26T01:45:52.313Z,91.20
2019-03-26T01:48:22.054Z,91.30
2019-03-26T01:50:51.771Z,91.40
2019-03-26T01:53:21.569Z,91.70
2019-03-26T01:55:51.302Z,91.90
2019-03-26T01:58:21.066Z,91.40
2019-03-26T02:00:50.819Z,91.40
2019-03-26T02:03:20.566Z,91.40
2019-03-26T02:05:50.315Z,91.70
2019-03-26T02:08:20.029Z,91.50
2019-03-26T02:10:49.818Z,91.50
2019-03-26T02:13:19.578Z,91.70
2019-03-26T02:15:49.303Z,91.70
2019-03-26T02:18:19.051Z,91.60
2019-03-26T02:20:48.782Z,91.60
2019-03-26T02:23:18.564Z,91.50
2019-03-26T02:25:48.300Z,91.30
2019-03-26T02:28:18.078Z,91.20
2019-03-26T02:30:47.841Z,91.30
2019-03-26T02:33:17.586Z,91.40
2019-03-26T02:35:47.329Z,91.40
2019-03-26T02:38:17.099Z,91.50
2019-03-26T02:40:46.938Z,91.40
2019-03-26T02:43:16.687Z,91.50
2019-03-26T02:45:46.413Z,91.40
2019-03-26T02:48:16.155Z,91.50
2019-03-26T02:50:45.935Z,91.60
2019-03-26T02:53:15.678Z,91.40
2019-03-26T02:55:45.416Z,91.30
2019-03-26T02:58:15.147Z,91.40
2019-03-26T03:00:44.913Z,91.30
2019-03-26T03:03:14.657Z,91.30
2019-03-26T03:05:44.404Z,91.40
2019-03-26T03:08:14.144Z,91.40
2019-03-26T03:10:43.880Z,91.20
2019-03-26T03:13:13.666Z,91.20
2019-03-26T03:15:43.407Z,91.10
2019-03-26T03:18:13.181Z,90.80
2019-03-26T03:20:42.903Z,90.90
2019-03-26T03:23:12.654Z,90.90
2019-03-26T03:25:42.394Z,91.00
2019-03-26T03:28:12.152Z,91.10
2019-03-26T03:30:41.901Z,91.20
2019-03-26T03:33:11.639Z,91.20
2019-03-26T03:35:51.880Z,91.20
2019-03-26T03:38:12.793Z,91.30
2019-03-26T03:40:42.629Z,91.40
2019-03-26T03:43:12.388Z,91.30
2019-03-26T03:45:42.142Z,91.30
2019-03-26T03:48:12.022Z,91.10
2019-03-26T03:50:43.359Z,91.20
2019-03-26T03:53:16.211Z,91.30
2019-03-26T03:55:46.311Z,91.20
2019-03-26T03:58:16.989Z,91.00
2019-03-26T04:00:46.741Z,91.10
2019-03-26T04:03:16.464Z,91.20
2019-03-26T04:05:46.208Z,91.30
2019-03-26T04:08:15.944Z,91.40
2019-03-26T04:10:45.719Z,91.60
2019-03-26T04:13:15.455Z,91.70
2019-03-26T04:15:45.232Z,91.70
2019-03-26T04:18:14.966Z,91.60
2019-03-26T04:20:44.707Z,91.60
2019-03-26T04:23:14.457Z,91.60
2019-03-26T04:25:44.172Z,91.70
2019-03-26T04:28:13.939Z,91.80
2019-03-26T04:30:43.673Z,91.90
2019-03-26T04:33:13.415Z,92.00
2019-03-26T04:35:43.155Z,92.10
2019-03-26T04:38:12.894Z,92.00
2019-03-26T04:40:42.686Z,92.10
2019-03-26T04:43:12.410Z,92.00
2019-03-26T04:45:42.105Z,92.10
2019-03-26T04:48:11.838Z,92.10
2019-03-26T04:50:41.573Z,91.90
2019-03-26T04:53:11.307Z,92.00
2019-03-26T04:55:41.105Z,92.10
2019-03-26T04:58:10.830Z,92.20
2019-03-26T05:00:40.578Z,92.10
2019-03-26T05:03:10.389Z,92.00
2019-03-26T05:05:40.056Z,91.90
2019-03-26T05:08:09.834Z,91.80
2019-03-26T05:10:39.573Z,91.90
2019-03-26T05:13:09.334Z,91.70
2019-03-26T05:15:39.074Z,91.30
2019-03-26T05:18:08.823Z,91.30
2019-03-26T05:20:38.610Z,91.20
2019-03-26T05:23:08.347Z,91.10
2019-03-26T05:25:38.121Z,90.70
2019-03-26T05:28:07.870Z,90.90
2019-03-26T05:30:37.604Z,91.10
2019-03-26T05:33:07.336Z,90.90
2019-03-26T05:35:37.059Z,90.40
2019-03-26T05:38:06.849Z,90.30
2019-03-26T05:40:36.574Z,90.10
2019-03-26T05:43:06.314Z,90.10
2019-03-26T05:45:36.110Z,90.10
2019-03-26T05:48:05.843Z,90.20
2019-03-26T05:50:35.582Z,90.20
2019-03-26T05:53:05.330Z,90.20
2019-03-26T05:55:35.075Z,90.10
2019-03-26T05:58:04.863Z,90.20
2019-03-26T06:00:34.600Z,90.30
2019-03-26T06:03:04.341Z,90.40
2019-03-26T06:05:34.082Z,90.40
2019-03-26T06:08:03.847Z,90.70
2019-03-26T06:10:33.583Z,90.60
2019-03-26T06:13:03.337Z,90.60
2019-03-26T06:15:33.070Z,90.70
2019-03-26T06:18:02.810Z,90.80
2019-03-26T06:20:32.710Z,90.90
2019-03-26T06:23:02.443Z,90.90
2019-03-26T06:25:32.240Z,90.80
2019-03-26T06:28:01.965Z,90.70
2019-03-26T06:30:31.699Z,90.70
2019-03-26T06:33:01.444Z,90.80
2019-03-26T06:35:31.179Z,90.90
2019-03-26T06:38:00.970Z,91.00
2019-03-26T06:40:30.703Z,90.90
2019-03-26T06:43:00.445Z,90.50
2019-03-26T06:45:30.178Z,89.90
2019-03-26T06:47:59.904Z,89.30
2019-03-26T06:50:29.674Z,90.00
2019-03-26T06:52:59.404Z,89.50
2019-03-26T06:55:29.197Z,88.80
2019-03-26T06:57:58.928Z,89.10
2019-03-26T07:00:32.814Z,87.90
2019-03-26T07:03:04.156Z,87.20
2019-03-26T07:05:33.936Z,88.20
2019-03-26T07:08:03.666Z,88.20
2019-03-26T07:10:33.402Z,86.40
2019-03-26T07:13:03.153Z,85.00
2019-03-26T07:15:32.893Z,82.10
2019-03-26T07:18:02.675Z,81.90
2019-03-26T07:20:32.417Z,79.20
2019-03-26T07:23:02.188Z,79.40
2019-03-26T07:25:31.919Z,79.80
2019-03-26T07:28:01.675Z,79.40
2019-03-26T07:30:42.027Z,77.30
2019-03-26T07:33:11.893Z,78.60
2019-03-26T07:35:41.627Z,78.90
2019-03-26T07:38:11.368Z,77.40
2019-03-26T07:40:41.109Z,75.70
2019-03-26T07:43:10.863Z,73.90
2019-03-26T07:45:40.750Z,74.80
2019-03-26T07:48:11.275Z,76.50
2019-03-26T07:50:41.043Z,76.50
2019-03-26T07:53:10.783Z,75.50
2019-03-26T07:55:43.648Z,75.00
2019-03-26T07:58:11.883Z,73.90
2019-03-26T08:00:41.630Z,73.00
2019-03-26T08:03:11.522Z,73.20
2019-03-26T08:05:41.263Z,74.60
2019-03-26T08:08:11.031Z,75.00
2019-03-26T08:10:40.775Z,74.60
2019-03-26T08:13:10.537Z,73.80
2019-03-26T08:15:40.280Z,73.70
2019-03-26T08:18:09.995Z,75.00
2019-03-26T08:20:39.898Z,75.30
2019-03-26T08:23:09.646Z,76.20
2019-03-26T08:25:40.436Z,76.70
2019-03-26T08:28:10.174Z,76.90
2019-03-26T08:30:39.960Z,78.10
2019-03-26T08:33:09.691Z,76.50
2019-03-26T08:35:39.433Z,75.00
2019-03-26T08:38:12.943Z,74.70
2019-03-26T08:40:40.617Z,74.00
2019-03-26T08:43:10.508Z,74.60
2019-03-26T08:45:40.250Z,74.50
2019-03-26T08:48:10.036Z,74.00
2019-03-26T08:50:39.759Z,73.90
2019-03-26T08:53:09.516Z,74.80
2019-03-26T08:55:39.588Z,75.00
2019-03-26T08:58:09.317Z,73.60
2019-03-26T09:00:39.119Z,72.40
2019-03-26T09:03:08.863Z,69.90
2019-03-26T09:05:38.603Z,68.20
2019-03-26T09:08:08.647Z,69.60
2019-03-26T09:10:46.625Z,69.40
2019-03-26T09:13:09.784Z,69.60
2019-03-26T09:15:39.507Z,68.80
2019-03-26T09:18:09.340Z,70.00
2019-03-26T09:20:39.055Z,69.30
2019-03-26T09:23:12.065Z,68.10
2019-03-26T09:25:40.214Z,66.10
2019-03-26T09:28:09.930Z,64.10
2019-03-26T09:30:39.664Z,66.40
2019-03-26T09:33:09.448Z,64.90
2019-03-26T09:35:39.184Z,63.60
2019-03-26T09:38:08.947Z,64.60
2019-03-26T09:40:38.678Z,64.50
2019-03-26T09:43:08.804Z,64.50
2019-03-26T09:45:38.542Z,65.20
2019-03-26T09:48:08.287Z,63.20
2019-03-26T09:50:38.270Z,62.20
2019-03-26T09:53:07.996Z,60.40
2019-03-26T09:55:37.725Z,61.70
2019-03-26T09:58:07.495Z,62.80
2019-03-26T10:00:37.347Z,63.20
2019-03-26T10:03:07.058Z,63.20
2019-03-26T10:05:36.821Z,62.70
2019-03-26T10:08:06.553Z,62.50
2019-03-26T10:10:36.286Z,60.50
2019-03-26T10:13:06.082Z,59.20
2019-03-26T10:15:35.807Z,58.50
2019-03-26T10:18:05.538Z,60.00
2019-03-26T10:20:35.455Z,58.20
2019-03-26T10:23:05.198Z,58.70
2019-03-26T10:25:34.941Z,58.20
2019-03-26T10:28:04.735Z,57.40
2019-03-26T10:30:36.573Z,56.60
2019-03-26T10:33:07.176Z,56.20
2019-03-26T10:35:37.028Z,56.40
2019-03-26T10:38:06.779Z,57.00
2019-03-26T10:40:38.311Z,57.40
2019-03-26T10:43:08.054Z,58.50
2019-03-26T10:45:37.819Z,59.10
2019-03-26T10:48:07.575Z,60.30
2019-03-26T10:50:37.290Z,58.90
2019-03-26T10:53:07.027Z,59.20
2019-03-26T10:55:36.761Z,58.90
2019-03-26T10:58:06.523Z,59.50
2019-03-26T11:00:36.259Z,59.80
2019-03-26T11:03:06.020Z,60.00
2019-03-26T11:05:35.746Z,59.40
2019-03-26T11:08:05.473Z,58.40
2019-03-26T11:10:35.235Z,56.90
2019-03-26T11:13:04.991Z,56.90
2019-03-26T11:15:34.841Z,55.90
2019-03-26T11:18:04.571Z,56.20
2019-03-26T11:20:34.315Z,56.40
2019-03-26T11:23:04.056Z,55.10
2019-03-26T11:25:33.936Z,55.50
2019-03-26T11:28:04.754Z,53.70
2019-03-26T11:30:34.510Z,53.40
2019-03-26T11:33:04.251Z,53.90
2019-03-26T11:35:34.017Z,53.60
2019-03-26T11:38:03.737Z,54.20
2019-03-26T11:40:33.481Z,53.60
2019-03-26T11:43:03.213Z,54.40
2019-03-26T11:45:32.944Z,54.80
2019-03-26T11:48:02.820Z,54.70
2019-03-26T11:50:32.542Z,54.10
2019-03-26T11:53:03.216Z,54.80
2019-03-26T11:55:32.931Z,54.70
2019-03-26T11:58:02.664Z,54.20
2019-03-26T12:00:33.965Z,53.50
2019-03-26T12:03:03.849Z,53.70
2019-03-26T12:05:33.580Z,54.20
2019-03-26T12:08:03.323Z,55.80
2019-03-26T12:10:33.058Z,56.60
2019-03-26T12:13:02.807Z,55.70
2019-03-26T12:15:32.566Z,56.10
2019-03-26T12:18:02.287Z,56.90
2019-03-26T12:20:32.170Z,57.30
2019-03-26T12:23:01.902Z,56.90
2019-03-26T12:25:31.644Z,57.60
2019-03-26T12:28:01.383Z,58.00
2019-03-26T12:30:33.616Z,57.40
2019-03-26T12:33:03.577Z,57.40
2019-03-26T12:35:33.391Z,57.10
2019-03-26T12:38:06.109Z,57.50
2019-03-26T12:40:35.849Z,58.00
2019-03-26T12:43:05.587Z,59.20
2019-03-26T12:45:36.334Z,61.20
2019-03-26T12:48:06.064Z,60.90
2019-03-26T12:50:35.855Z,60.60
2019-03-26T12:53:05.588Z,60.30
2019-03-26T12:55:35.326Z,59.40
2019-03-26T12:58:05.219Z,58.80
2019-03-26T13:00:35.368Z,59.00
2019-03-26T13:03:05.102Z,59.50
2019-03-26T13:05:34.871Z,57.40
2019-03-26T13:08:06.642Z,57.70
2019-03-26T13:10:37.694Z,58.60
2019-03-26T13:13:07.664Z,55.50
2019-03-26T13:15:37.410Z,56.10
2019-03-26T13:18:07.134Z,57.30
2019-03-26T13:20:36.939Z,57.60
2019-03-26T13:23:06.666Z,55.20
2019-03-26T13:25:36.423Z,55.70
2019-03-26T13:28:06.186Z,55.40
2019-03-26T13:30:35.926Z,56.10
2019-03-26T13:33:05.663Z,56.30
2019-03-26T13:35:35.998Z,56.50
2019-03-26T13:38:05.750Z,56.80
2019-03-26T13:40:35.851Z,56.30
2019-03-26T13:43:05.601Z,57.30
2019-03-26T13:45:35.329Z,58.10
2019-03-26T13:48:06.120Z,59.70
2019-03-26T13:50:35.842Z,59.50
2019-03-26T13:53:05.593Z,59.60
2019-03-26T13:55:36.185Z,58.90
2019-03-26T13:58:05.939Z,57.80
2019-03-26T14:00:37.527Z,57.50
2019-03-26T14:03:07.772Z,57.70
2019-03-26T14:05:37.552Z,57.00
2019-03-26T14:08:07.321Z,56.20
2019-03-26T14:10:41.257Z,55.90
2019-03-26T14:13:08.531Z,54.00
2019-03-26T14:15:38.302Z,53.20
2019-03-26T14:18:08.027Z,53.70
2019-03-26T14:20:37.866Z,54.10
2019-03-26T14:23:07.521Z,53.00
2019-03-26T14:25:37.541Z,52.60
2019-03-26T14:28:07.295Z,52.10
2019-03-26T14:30:42.190Z,53.00
2019-03-26T14:33:11.915Z,52.30
2019-03-26T14:35:41.682Z,51.50
2019-03-26T14:38:11.418Z,52.10
2019-03-26T14:40:54.030Z,51.40
2019-03-26T14:43:13.565Z,50.90
2019-03-26T14:45:43.342Z,50.50
2019-03-26T14:48:13.174Z,50.80
2019-03-26T14:50:49.946Z,51.60
2019-03-26T14:53:19.678Z,52.00
2019-03-26T14:55:50.377Z,53.00
2019-03-26T14:58:20.121Z,52.80
2019-03-26T15:00:49.883Z,53.50
2019-03-26T15:03:20.621Z,54.30
2019-03-26T15:05:50.394Z,54.60
2019-03-26T15:08:20.126Z,54.50
2019-03-26T15:10:49.922Z,54.70
2019-03-26T15:13:19.654Z,54.90
2019-03-26T15:15:51.232Z,55.90
2019-03-26T15:18:20.977Z,55.80
2019-03-26T15:20:50.735Z,55.80
2019-03-26T15:23:20.470Z,56.10
2019-03-26T15:25:50.205Z,57.40
2019-03-26T15:28:19.979Z,57.00
2019-03-26T15:30:49.704Z,56.40
2019-03-26T15:33:19.757Z,56.70
2019-03-26T15:35:49.530Z,56.90
2019-03-26T15:38:19.236Z,57.20
2019-03-26T15:40:49.031Z,56.60
2019-03-26T15:43:18.761Z,57.10
2019-03-26T15:45:48.495Z,57.00
2019-03-26T15:48:18.226Z,57.20
2019-03-26T15:50:48.950Z,57.00
2019-03-26T15:53:18.723Z,57.10
2019-03-26T15:55:48.451Z,57.20
2019-03-26T15:58:18.320Z,57.70
2019-03-26T16:00:48.051Z,57.90
2019-03-26T16:03:17.935Z,58.00
2019-03-26T16:05:47.842Z,57.50
2019-03-26T16:08:17.602Z,57.80
2019-03-26T16:10:47.322Z,57.60
2019-03-26T16:13:17.094Z,57.80
2019-03-26T16:15:46.867Z,57.90
2019-03-26T16:18:16.607Z,58.00
2019-03-26T16:20:46.338Z,58.30
2019-03-26T16:23:16.068Z,58.20
2019-03-26T16:25:45.852Z,58.20
2019-03-26T16:28:15.595Z,58.10
2019-03-26T16:30:45.329Z,59.30
2019-03-26T16:33:15.065Z,58.50
2019-03-26T16:35:44.791Z,58.80
2019-03-26T16:38:14.579Z,58.70
2019-03-26T16:40:44.322Z,58.70
2019-03-26T16:43:14.132Z,59.10
2019-03-26T16:45:43.830Z,59.00
2019-03-26T16:48:13.567Z,58.90
2019-03-26T16:50:43.325Z,59.20
2019-03-26T16:53:13.050Z,59.60
2019-03-26T16:55:42.819Z,59.60
2019-03-26T16:58:12.545Z,59.40
2019-03-26T17:00:42.303Z,59.90
2019-03-26T17:03:12.038Z,59.90
2019-03-26T17:05:41.778Z,59.80
2019-03-26T17:08:11.830Z,60.10
2019-03-26T17:10:41.587Z,60.40
2019-03-26T17:13:11.362Z,61.60
2019-03-26T17:15:41.110Z,60.50
2019-03-26T17:18:10.898Z,60.70
2019-03-26T17:20:40.562Z,60.90
2019-03-26T17:23:10.298Z,61.10
2019-03-26T17:25:40.062Z,61.20
2019-03-26T17:28:09.783Z,62.20
2019-03-26T17:30:39.538Z,63.30
2019-03-26T17:33:09.286Z,63.90
2019-03-26T17:35:39.458Z,64.20
2019-03-26T17:38:09.178Z,64.60
2019-03-26T17:40:38.970Z,64.30
2019-03-26T17:43:08.740Z,64.50
2019-03-26T17:45:38.486Z,64.10
2019-03-26T17:48:08.236Z,64.80
2019-03-26T17:50:37.966Z,65.50
2019-03-26T17:53:07.751Z,64.40
2019-03-26T17:55:37.495Z,64.90
2019-03-26T17:58:07.275Z,65.50
2019-03-26T18:00:43.406Z,65.40
2019-03-26T18:03:25.780Z,66.60
2019-03-26T18:05:44.563Z,67.70
2019-03-26T18:08:14.349Z,68.70
2019-03-26T18:10:44.095Z,70.40
2019-03-26T18:13:13.888Z,75.50
2019-03-26T18:15:43.629Z,80.60
2019-03-26T18:18:13.366Z,83.80
2019-03-26T18:20:43.111Z,87.10
2019-03-26T18:23:12.866Z,89.40
2019-03-26T18:25:42.667Z,90.20
2019-03-26T18:28:12.425Z,90.10
2019-03-26T18:30:42.218Z,90.10
2019-03-26T18:33:12.089Z,90.80
2019-03-26T18:35:41.893Z,90.70
2019-03-26T18:38:14.623Z,90.80
2019-03-26T18:40:43.117Z,91.00
2019-03-26T18:43:13.837Z,91.30
2019-03-26T18:45:43.642Z,91.80
2019-03-26T18:48:13.382Z,91.70
2019-03-26T18:50:43.232Z,91.90
2019-03-26T18:53:12.947Z,91.90
2019-03-26T18:55:42.919Z,91.40
2019-03-26T18:58:12.718Z,91.10
2019-03-26T19:00:43.696Z,91.00
2019-03-26T19:03:13.754Z,91.10
2019-03-26T19:05:43.538Z,91.10
2019-03-26T19:08:13.290Z,91.40
2019-03-26T19:10:43.066Z,91.40
2019-03-26T19:13:19.386Z,91.50
2019-03-26T19:15:44.242Z,91.60
2019-03-26T19:18:13.969Z,91.60
2019-03-26T19:20:43.735Z,91.80
2019-03-26T19:23:13.498Z,91.80
2019-03-26T19:25:43.219Z,91.90
2019-03-26T19:28:12.993Z,92.10
2019-03-26T19:30:42.724Z,91.90
2019-03-26T19:33:12.474Z,92.10
2019-03-26T19:35:42.220Z,91.80
2019-03-26T19:38:11.956Z,91.90
2019-03-26T19:40:41.787Z,92.20
2019-03-26T19:43:11.805Z,92.10
2019-03-26T19:45:41.773Z,92.30
2019-03-26T19:48:11.498Z,92.20
2019-03-26T19:50:41.283Z,92.20
2019-03-26T19:53:11.026Z,92.50
2019-03-26T19:55:40.795Z,92.40
2019-03-26T19:58:10.527Z,92.40
2019-03-26T20:00:41.743Z,92.40
2019-03-26T20:03:11.551Z,92.50
2019-03-26T20:05:41.302Z,92.60
2019-03-26T20:08:11.101Z,92.70
2019-03-26T20:10:40.840Z,92.90
2019-03-26T20:13:23.250Z,92.90
2019-03-26T20:15:42.070Z,93.00
2019-03-26T20:18:11.844Z,93.00
2019-03-26T20:20:41.626Z,92.80
2019-03-26T20:23:11.358Z,92.90
2019-03-26T20:25:41.256Z,93.00
2019-03-26T20:28:10.992Z,92.70
2019-03-26T20:30:40.773Z,92.70
2019-03-26T20:33:10.511Z,92.80
2019-03-26T20:35:40.256Z,92.50
2019-03-26T20:38:10.040Z,92.70
2019-03-26T20:40:39.775Z,92.80
2019-03-26T20:43:09.522Z,92.50
2019-03-26T20:45:39.257Z,92.70
2019-03-26T20:48:09.058Z,92.70
2019-03-26T20:50:38.795Z,92.80
2019-03-26T20:53:08.919Z,92.50
2019-03-26T20:55:38.651Z,92.60
2019-03-26T20:58:08.531Z,92.90
2019-03-26T21:00:40.428Z,93.10
2019-03-26T21:03:11.389Z,93.20
2019-03-26T21:05:41.171Z,93.30
2019-03-26T21:08:10.911Z,93.30
2019-03-26T21:10:40.757Z,93.20
2019-03-26T21:13:10.531Z,93.20
2019-03-26T21:15:42.625Z,92.90
2019-03-26T21:18:11.735Z,92.80
2019-03-26T21:20:41.496Z,92.70
2019-03-26T21:23:11.373Z,92.80
2019-03-26T21:25:41.110Z,93.00
2019-03-26T21:28:10.871Z,93.20
2019-03-26T21:30:40.599Z,93.50
2019-03-26T21:33:10.340Z,93.40
2019-03-26T21:35:40.090Z,93.40
2019-03-26T21:38:09.821Z,93.50
2019-03-26T21:40:39.606Z,93.50
2019-03-26T21:43:09.654Z,93.50
2019-03-26T21:45:39.843Z,93.60
2019-03-26T21:48:10.283Z,93.50
2019-03-26T21:50:40.026Z,93.40
2019-03-26T21:53:09.819Z,93.50
2019-03-26T21:55:39.550Z,93.50
2019-03-26T22:01:56.575Z,93.70
2019-03-26T22:04:26.115Z,94.40
2019-03-26T22:06:55.644Z,94.30
2019-03-26T22:09:25.084Z,94.00
2019-03-26T22:11:54.601Z,94.00
2019-03-26T22:14:24.156Z,93.90
2019-03-26T22:16:53.690Z,93.90
2019-03-26T22:19:28.802Z,93.30
2019-03-26T22:21:54.446Z,93.20
2019-03-26T22:24:24.223Z,93.20
2019-03-26T22:26:53.957Z,93.20
2019-03-26T22:29:23.700Z,93.10
2019-03-26T22:31:53.434Z,92.90
2019-03-26T22:34:23.167Z,92.80
2019-03-26T22:36:52.945Z,93.10
2019-03-26T22:39:22.681Z,93.10
2019-03-26T22:41:52.415Z,93.10
2019-03-26T22:44:31.234Z,93.20
2019-03-26T22:46:54.554Z,92.70
2019-03-26T22:49:24.295Z,92.50
2019-03-26T22:51:54.074Z,92.40
2019-03-26T22:54:23.838Z,92.10
2019-03-26T22:56:53.571Z,91.60
2019-03-26T22:59:23.320Z,91.40
2019-03-26T23:01:53.051Z,91.30
2019-03-26T23:04:22.822Z,91.20
2019-03-26T23:06:52.547Z,91.00
2019-03-26T23:09:22.281Z,91.40
2019-03-26T23:11:52.021Z,91.60
2019-03-26T23:14:21.755Z,91.30
2019-03-26T23:16:51.525Z,91.10
2019-03-26T23:19:21.258Z,91.00
2019-03-26T23:21:51.023Z,91.20
2019-03-26T23:24:20.770Z,91.30
2019-03-26T23:26:50.535Z,91.70
2019-03-26T23:29:20.274Z,91.10
2019-03-26T23:31:50.034Z,90.90
2019-03-26T23:34:19.762Z,90.80
2019-03-26T23:36:49.492Z,90.80
2019-03-26T23:39:19.230Z,90.90
2019-03-26T23:41:48.973Z,90.90
2019-03-26T23:44:25.699Z,91.20
2019-03-26T23:46:50.111Z,91.10
2019-03-26T23:49:19.893Z,91.20
2019-03-26T23:51:49.634Z,91.40
2019-03-26T23:54:19.470Z,91.50
2019-03-26T23:56:49.206Z,91.40
2019-03-26T23:59:18.998Z,91.50
